Time;durP1;ratioP1;P1;durP2;ratioP2;P2;SDS_P1;SDS_P2;PMS_P1;PMS_P2;Temp;Humidity;BMP_temperature;BMP_pressure;BME280_temperature;BME280_humidity;BME280_pressure;Samples;Min_cycle;Max_cycle;Signal;HPM_P1;HPM_P2
2021/04/19 00:01:26;;;;;;;70.37;29.83;;;6.20;99.90;;;;;;5094169;28;20204;-77
2021/04/19 00:03:52;;;;;;;72.77;30.93;;;6.10;99.90;;;;;;5094690;28;20291;-78
2021/04/19 00:06:18;;;;;;;76.77;30.33;;;6.10;99.90;;;;;;5093543;28;20213;-78
2021/04/19 00:08:45;;;;;;;68.93;30.83;;;6.10;99.90;;;;;;5094445;28;20201;-78
2021/04/19 00:11:11;;;;;;;74.13;30.97;;;6.00;99.90;;;;;;5093706;28;20247;-78
2021/04/19 00:13:39;;;;;;;77.90;30.97;;;6.00;99.90;;;;;;5094264;28;20197;-78
2021/04/19 00:16:06;;;;;;;75.10;31.80;;;6.10;99.90;;;;;;5094096;28;20585;-78
2021/04/19 00:18:32;;;;;;;72.90;33.30;;;6.10;99.90;;;;;;5093543;28;20202;-78
2021/04/19 00:20:59;;;;;;;69.93;31.97;;;6.20;99.90;;;;;;5093156;28;20714;-77
2021/04/19 00:23:25;;;;;;;76.30;30.93;;;6.10;99.90;;;;;;5094394;28;20248;-78
2021/04/19 00:25:52;;;;;;;81.10;32.83;;;6.10;99.90;;;;;;5093871;28;20240;-78
2021/04/19 00:28:18;;;;;;;75.87;32.37;;;6.20;99.90;;;;;;5093993;28;20600;-78
2021/04/19 00:30:45;;;;;;;81.83;32.03;;;6.10;99.90;;;;;;5094016;28;20192;-78
2021/04/19 00:33:11;;;;;;;77.93;32.63;;;6.10;99.90;;;;;;5093973;28;20200;-78
2021/04/19 00:35:38;;;;;;;75.40;33.03;;;6.20;99.90;;;;;;5093491;28;20198;-78
2021/04/19 00:38:05;;;;;;;79.10;32.10;;;6.20;99.90;;;;;;5093860;28;20278;-78
2021/04/19 00:40:33;;;;;;;76.80;32.80;;;6.30;99.90;;;;;;5093848;28;20206;-78
2021/04/19 00:42:59;;;;;;;81.33;32.87;;;6.30;99.90;;;;;;5093846;28;20641;-78
2021/04/19 00:45:26;;;;;;;76.47;32.87;;;6.30;99.90;;;;;;5093702;28;20194;-77
2021/04/19 00:47:53;;;;;;;74.77;33.20;;;6.30;99.90;;;;;;5093751;28;20200;-77
2021/04/19 00:50:24;;;;;;;75.70;33.47;;;6.30;99.90;;;;;;5093170;28;20196;-78
2021/04/19 00:52:52;;;;;;;75.40;32.27;;;6.40;99.90;;;;;;5093745;28;20297;-78
2021/04/19 00:55:19;;;;;;;72.97;32.50;;;6.30;99.90;;;;;;5094087;28;20200;-78
2021/04/19 00:57:46;;;;;;;87.63;34.23;;;6.30;99.90;;;;;;5093534;28;20260;-77
2021/04/19 01:00:16;;;;;;;83.10;33.23;;;6.20;99.90;;;;;;5094075;28;20196;-78
2021/04/19 01:02:43;;;;;;;86.23;33.90;;;6.10;99.90;;;;;;5073341;28;20301;-78
2021/04/19 01:05:14;;;;;;;92.67;34.83;;;6.10;99.90;;;;;;5072958;28;20617;-78
2021/04/19 01:07:41;;;;;;;85.87;34.57;;;6.10;99.90;;;;;;5080746;28;20199;-78
2021/04/19 01:10:08;;;;;;;84.63;34.80;;;6.10;99.90;;;;;;5093462;28;20198;-79
2021/04/19 01:12:35;;;;;;;83.87;35.13;;;6.10;99.90;;;;;;5093452;28;20206;-78
2021/04/19 01:15:01;;;;;;;87.40;35.60;;;6.10;99.90;;;;;;5093995;28;20296;-78
2021/04/19 01:17:27;;;;;;;75.40;32.50;;;6.00;99.90;;;;;;5093360;28;20228;-78
2021/04/19 01:19:54;;;;;;;81.13;34.77;;;6.00;99.90;;;;;;5092898;28;20665;-77
2021/04/19 01:22:21;;;;;;;85.47;34.63;;;6.10;99.90;;;;;;5092973;28;20203;-78
2021/04/19 01:24:47;;;;;;;93.90;35.57;;;6.10;99.90;;;;;;5093458;28;20226;-77
2021/04/19 01:27:14;;;;;;;85.33;35.37;;;6.00;99.90;;;;;;5092498;28;20248;-78
2021/04/19 01:29:40;;;;;;;95.23;35.37;;;6.10;99.90;;;;;;5094370;28;20195;-78
2021/04/19 01:32:08;;;;;;;84.77;34.37;;;6.10;99.90;;;;;;5096834;28;20191;-78
2021/04/19 01:34:34;;;;;;;89.77;36.40;;;6.10;99.90;;;;;;5096936;28;20211;-78
2021/04/19 01:37:01;;;;;;;93.43;35.90;;;6.10;99.90;;;;;;5096455;28;20228;-78
2021/04/19 01:39:28;;;;;;;99.57;36.30;;;6.10;99.90;;;;;;5096520;28;20662;-78
2021/04/19 01:41:54;;;;;;;87.87;36.27;;;6.10;99.90;;;;;;5096648;28;20197;-78
2021/04/19 01:44:21;;;;;;;91.17;36.27;;;6.10;99.90;;;;;;5097052;28;20745;-78
2021/04/19 01:46:47;;;;;;;94.40;36.60;;;6.10;99.90;;;;;;5096100;28;20199;-78
2021/04/19 01:49:16;;;;;;;88.47;36.40;;;6.10;99.90;;;;;;5095934;28;20567;-78
2021/04/19 01:51:42;;;;;;;92.00;36.83;;;6.10;99.90;;;;;;5096412;28;20287;-78
2021/04/19 01:54:09;;;;;;;90.40;36.80;;;6.10;99.90;;;;;;5096564;28;20606;-78
2021/04/19 01:56:36;;;;;;;98.47;38.60;;;6.10;99.90;;;;;;5095734;28;20220;-78
2021/04/19 01:59:05;;;;;;;97.67;38.40;;;6.10;99.90;;;;;;5096338;28;20283;-78
2021/04/19 02:01:32;;;;;;;100.13;39.20;;;6.10;99.90;;;;;;5096416;28;20199;-78
2021/04/19 02:04:08;;;;;;;103.43;38.40;;;6.10;99.90;;;;;;5096031;28;20302;-79
2021/04/19 02:06:39;;;;;;;108.30;39.37;;;6.10;99.90;;;;;;5095673;28;20310;-78
2021/04/19 02:09:15;;;;;;;103.07;40.47;;;6.10;99.90;;;;;;5087823;28;20215;-78
2021/04/19 02:11:53;;;;;;;103.70;40.23;;;6.00;99.90;;;;;;5095999;28;20195;-78
2021/04/19 02:14:38;;;;;;;110.70;41.97;;;6.00;99.90;;;;;;5096733;28;20204;-78
2021/04/19 02:17:14;;;;;;;107.97;41.77;;;6.00;99.90;;;;;;5095848;28;20280;-78
2021/04/19 02:19:43;;;;;;;110.97;40.50;;;5.90;99.90;;;;;;5095523;28;20285;-78
2021/04/19 02:22:14;;;;;;;107.77;41.10;;;5.90;99.90;;;;;;5081621;28;20193;-78
2021/04/19 02:24:45;;;;;;;121.80;43.50;;;5.90;99.90;;;;;;5095706;28;20209;-78
2021/04/19 02:27:17;;;;;;;121.47;44.27;;;5.90;99.90;;;;;;5095840;28;20201;-78
2021/04/19 02:29:47;;;;;;;124.67;43.20;;;6.00;99.90;;;;;;5096069;28;20277;-78
2021/04/19 02:32:16;;;;;;;124.30;46.27;;;6.00;99.90;;;;;;5096072;28;20562;-79
2021/04/19 02:34:45;;;;;;;112.00;44.73;;;5.90;99.90;;;;;;5095813;28;20204;-78
2021/04/19 02:37:13;;;;;;;120.60;44.83;;;5.80;99.90;;;;;;5095903;28;20249;-79
2021/04/19 02:39:42;;;;;;;124.80;43.20;;;5.80;99.90;;;;;;5095780;28;20662;-78
2021/04/19 02:42:11;;;;;;;125.03;44.93;;;5.80;99.90;;;;;;5094421;28;20199;-78
2021/04/19 02:44:38;;;;;;;110.87;43.30;;;5.80;99.90;;;;;;5095725;28;20196;-78
2021/04/19 02:47:06;;;;;;;108.40;42.73;;;5.80;99.90;;;;;;5095904;28;20200;-78
2021/04/19 02:49:35;;;;;;;115.43;43.00;;;5.80;99.90;;;;;;5095571;28;20621;-78
2021/04/19 02:52:05;;;;;;;110.77;43.90;;;5.90;99.90;;;;;;5095692;28;20196;-78
2021/04/19 02:54:33;;;;;;;129.40;45.27;;;5.90;99.90;;;;;;5095888;28;20195;-77
2021/04/19 02:57:01;;;;;;;127.03;45.23;;;5.90;99.90;;;;;;5095898;28;20283;-78
2021/04/19 02:59:30;;;;;;;128.73;47.50;;;5.90;99.90;;;;;;5095095;28;20276;-78
2021/04/19 03:02:02;;;;;;;124.83;48.30;;;5.90;99.90;;;;;;5095539;28;20222;-77
2021/04/19 03:04:36;;;;;;;142.47;47.07;;;5.90;99.90;;;;;;5096272;28;20299;-78
2021/04/19 03:07:06;;;;;;;122.93;46.60;;;5.90;99.90;;;;;;5095228;28;20213;-78
2021/04/19 03:09:33;;;;;;;127.20;47.73;;;6.00;99.90;;;;;;5095478;28;20674;-78
2021/04/19 03:12:03;;;;;;;119.73;47.70;;;6.00;99.90;;;;;;5095461;28;20288;-78
2021/04/19 03:14:34;;;;;;;138.40;48.20;;;6.00;99.90;;;;;;5095178;28;20196;-78
2021/04/19 03:17:04;;;;;;;124.00;47.83;;;6.00;99.90;;;;;;5094828;28;20232;-78
2021/04/19 03:19:35;;;;;;;126.17;47.43;;;5.90;99.90;;;;;;5095285;28;20196;-78
2021/04/19 03:22:03;;;;;;;135.00;47.83;;;5.90;99.90;;;;;;5095637;28;20200;-78
2021/04/19 03:24:31;;;;;;;133.27;49.37;;;6.00;99.90;;;;;;5095620;28;20288;-78
2021/04/19 03:26:59;;;;;;;131.13;50.37;;;6.00;99.90;;;;;;5094955;28;20207;-78
2021/04/19 03:29:26;;;;;;;146.77;51.40;;;6.00;99.90;;;;;;5095621;28;20300;-78
2021/04/19 03:31:55;;;;;;;133.33;49.83;;;6.00;99.90;;;;;;5094769;28;20202;-78
2021/04/19 03:34:24;;;;;;;139.07;52.83;;;6.00;99.90;;;;;;5095190;28;20192;-78
2021/04/19 03:36:54;;;;;;;136.67;52.73;;;6.00;99.90;;;;;;5094748;28;20222;-78
2021/04/19 03:39:24;;;;;;;141.73;51.70;;;6.00;99.90;;;;;;5095545;28;20200;-79
2021/04/19 03:41:53;;;;;;;134.57;51.10;;;5.90;99.90;;;;;;5094838;28;20197;-78
2021/04/19 03:44:25;;;;;;;145.63;53.47;;;6.00;99.90;;;;;;5095409;28;20196;-78
2021/04/19 03:46:53;;;;;;;147.63;53.67;;;6.10;99.90;;;;;;5094950;28;20562;-77
2021/04/19 03:49:24;;;;;;;147.17;54.07;;;6.00;99.90;;;;;;5094174;28;20285;-79
2021/04/19 03:51:55;;;;;;;147.97;54.27;;;6.10;99.90;;;;;;5094784;28;20196;-77
2021/04/19 03:54:24;;;;;;;150.20;54.80;;;6.10;99.90;;;;;;5094842;28;20291;-77
2021/04/19 03:56:51;;;;;;;157.40;53.70;;;6.10;99.90;;;;;;5094480;28;20233;-77
2021/04/19 03:59:19;;;;;;;145.47;53.90;;;6.20;99.90;;;;;;5094780;28;20253;-77
2021/04/19 04:01:47;;;;;;;170.83;55.17;;;6.30;99.90;;;;;;5094707;28;20296;-79
2021/04/19 04:04:15;;;;;;;159.30;56.93;;;6.40;99.90;;;;;;5093959;28;20201;-77
2021/04/19 04:06:44;;;;;;;155.13;55.97;;;6.50;99.90;;;;;;5094191;28;20657;-77
2021/04/19 04:09:14;;;;;;;152.03;57.27;;;6.50;99.90;;;;;;5094646;28;20248;-77
2021/04/19 04:11:42;;;;;;;158.73;56.27;;;6.60;99.90;;;;;;5093946;28;20229;-77
2021/04/19 04:14:08;;;;;;;156.83;56.50;;;6.60;99.90;;;;;;5094031;28;20683;-77
2021/04/19 04:16:38;;;;;;;171.60;57.40;;;6.60;99.90;;;;;;5093631;28;20220;-77
2021/04/19 04:19:05;;;;;;;175.00;57.03;;;6.60;99.90;;;;;;5093792;28;20208;-77
2021/04/19 04:21:31;;;;;;;158.80;55.87;;;6.60;99.90;;;;;;5093850;28;20291;-77
2021/04/19 04:23:59;;;;;;;168.33;58.33;;;6.70;99.90;;;;;;5093172;28;20287;-77
2021/04/19 04:26:26;;;;;;;161.93;58.13;;;6.70;99.90;;;;;;5093323;28;20288;-77
2021/04/19 04:28:53;;;;;;;176.87;56.60;;;6.60;99.90;;;;;;5073497;28;20299;-78
2021/04/19 04:31:20;;;;;;;148.73;53.53;;;6.70;99.90;;;;;;5088357;28;20294;-77
2021/04/19 04:33:46;;;;;;;166.57;54.53;;;6.70;99.90;;;;;;5092857;28;20683;-77
2021/04/19 04:36:13;;;;;;;168.83;55.70;;;6.70;99.90;;;;;;5092531;28;20269;-78
2021/04/19 04:38:39;;;;;;;157.20;55.17;;;6.80;99.90;;;;;;5088119;28;20196;-78
2021/04/19 04:41:07;;;;;;;144.90;53.93;;;6.90;99.90;;;;;;5093102;28;20202;-77
2021/04/19 04:43:35;;;;;;;165.93;53.80;;;6.90;99.90;;;;;;5093528;28;20219;-77
2021/04/19 04:46:06;;;;;;;159.63;54.63;;;6.90;99.90;;;;;;5092901;28;20203;-77
2021/04/19 04:48:43;;;;;;;167.47;54.77;;;6.90;99.90;;;;;;5092686;28;20576;-78
2021/04/19 04:51:12;;;;;;;169.70;55.03;;;6.90;99.90;;;;;;5092653;28;20192;-77
2021/04/19 04:53:43;;;;;;;169.37;55.90;;;6.90;99.90;;;;;;5092837;28;20573;-77
2021/04/19 04:56:13;;;;;;;149.97;53.53;;;7.00;99.90;;;;;;5090528;28;20191;-76
2021/04/19 04:58:43;;;;;;;174.30;55.80;;;7.00;99.90;;;;;;5092900;28;20200;-77
2021/04/19 05:01:09;;;;;;;163.77;53.67;;;7.00;99.90;;;;;;5093500;28;20203;-77
2021/04/19 05:03:37;;;;;;;152.10;54.40;;;7.10;99.90;;;;;;5093585;28;20663;-77
2021/04/19 05:06:04;;;;;;;169.47;55.80;;;7.10;99.90;;;;;;5098698;28;20220;-77
2021/04/19 05:08:30;;;;;;;178.83;55.83;;;7.00;99.90;;;;;;5100383;28;20202;-77
2021/04/19 05:10:57;;;;;;;154.10;56.50;;;7.10;99.90;;;;;;5099578;28;20204;-78
2021/04/19 05:13:25;;;;;;;152.53;54.33;;;7.20;99.90;;;;;;5099074;28;20279;-76
2021/04/19 05:15:51;;;;;;;163.33;54.10;;;7.20;99.90;;;;;;5093079;28;20201;-77
2021/04/19 05:18:19;;;;;;;168.90;56.00;;;7.30;99.90;;;;;;5098954;28;20268;-77
2021/04/19 05:20:47;;;;;;;174.30;54.43;;;7.40;99.90;;;;;;5098757;28;20202;-77
2021/04/19 05:23:15;;;;;;;152.73;54.60;;;7.40;99.90;;;;;;5099522;28;20712;-77
2021/04/19 05:25:43;;;;;;;148.67;55.13;;;7.50;99.90;;;;;;5099436;28;20567;-78
2021/04/19 05:28:10;;;;;;;149.40;53.93;;;7.60;99.90;;;;;;5098879;28;20204;-77
2021/04/19 05:30:37;;;;;;;138.17;51.73;;;7.70;99.90;;;;;;5099755;28;20210;-77
2021/04/19 05:33:05;;;;;;;122.43;49.30;;;7.80;99.90;;;;;;5099526;28;20717;-78
2021/04/19 05:35:33;;;;;;;131.53;50.60;;;7.90;99.90;;;;;;5098953;28;20192;-79
2021/04/19 05:38:00;;;;;;;128.57;49.03;;;7.90;99.90;;;;;;5097744;28;20307;-78
2021/04/19 05:40:28;;;;;;;131.60;49.93;;;7.90;99.90;;;;;;5098389;28;20198;-78
2021/04/19 05:42:55;;;;;;;130.63;48.90;;;8.00;99.90;;;;;;5099495;28;20314;-78
2021/04/19 05:45:23;;;;;;;124.87;48.97;;;7.90;99.90;;;;;;5099465;28;20224;-78
2021/04/19 05:47:51;;;;;;;127.10;47.73;;;7.90;99.90;;;;;;5098689;28;20188;-78
2021/04/19 05:50:21;;;;;;;122.57;48.67;;;7.90;99.90;;;;;;5098798;28;20279;-77
2021/04/19 05:52:50;;;;;;;117.57;46.80;;;7.90;99.90;;;;;;5097723;28;20603;-77
2021/04/19 05:55:17;;;;;;;122.83;48.73;;;8.00;99.90;;;;;;5100263;28;20200;-77
2021/04/19 05:57:48;;;;;;;119.27;47.80;;;8.20;99.90;;;;;;5118917;28;20264;-77
2021/04/19 06:00:19;;;;;;;111.40;45.60;;;8.50;99.90;;;;;;5099531;28;20204;-78
2021/04/19 06:02:57;;;;;;;101.60;43.77;;;8.80;99.90;;;;;;5099386;28;20291;-77
2021/04/19 06:05:29;;;;;;;103.27;43.23;;;9.00;99.90;;;;;;5096460;28;20261;-78
2021/04/19 06:08:02;;;;;;;89.13;40.03;;;9.20;99.90;;;;;;5079184;28;20208;-78
2021/04/19 06:10:36;;;;;;;83.23;39.50;;;9.40;99.90;;;;;;5093134;28;20212;-77
2021/04/19 06:13:04;;;;;;;85.03;38.73;;;9.70;99.90;;;;;;5082357;28;20210;-78
2021/04/19 06:15:31;;;;;;;74.57;36.10;;;9.90;99.90;;;;;;5104135;28;20205;-78
2021/04/19 06:18:00;;;;;;;76.70;35.90;;;10.20;99.90;;;;;;5088534;28;20216;-77
2021/04/19 06:20:28;;;;;;;72.17;34.27;;;10.50;99.90;;;;;;5096794;28;20250;-77
2021/04/19 06:22:55;;;;;;;70.90;33.27;;;10.70;99.90;;;;;;5096397;28;20239;-78
2021/04/19 06:25:24;;;;;;;69.23;31.53;;;10.80;99.90;;;;;;5095274;28;20610;-78
2021/04/19 06:27:59;;;;;;;71.00;31.67;;;11.00;99.90;;;;;;5095362;28;20315;-78
2021/04/19 06:30:29;;;;;;;66.80;31.70;;;11.10;99.90;;;;;;5096013;28;20201;-78
2021/04/19 06:32:56;;;;;;;65.90;31.93;;;11.10;99.90;;;;;;5096408;28;20197;-78
2021/04/19 06:35:23;;;;;;;61.27;30.23;;;11.20;99.90;;;;;;5092306;28;20678;-78
2021/04/19 06:37:50;;;;;;;61.67;31.13;;;11.30;99.90;;;;;;5094971;28;20689;-78
2021/04/19 06:40:18;;;;;;;70.63;32.20;;;11.30;99.90;;;;;;5095649;28;20237;-77
2021/04/19 06:42:47;;;;;;;69.10;31.23;;;11.50;99.90;;;;;;5094741;28;20198;-77
2021/04/19 06:45:15;;;;;;;66.07;31.50;;;11.50;99.90;;;;;;5095185;28;20187;-77
2021/04/19 06:47:43;;;;;;;66.23;29.27;;;11.40;99.90;;;;;;5096107;28;20195;-77
2021/04/19 06:50:11;;;;;;;57.47;28.97;;;11.30;99.90;;;;;;5096056;28;20296;-77
2021/04/19 06:52:46;;;;;;;57.10;28.97;;;11.10;99.90;;;;;;5095158;28;20206;-77
2021/04/19 06:55:12;;;;;;;65.00;30.07;;;11.10;99.90;;;;;;5094975;28;20228;-78
2021/04/19 06:57:47;;;;;;;63.67;29.23;;;11.00;99.90;;;;;;5093901;28;20590;-78
2021/04/19 07:00:15;;;;;;;63.00;28.37;;;11.00;99.90;;;;;;5094487;28;20319;-77
2021/04/19 07:02:48;;;;;;;60.43;28.10;;;10.90;99.90;;;;;;5091930;28;20222;-78
2021/04/19 07:05:18;;;;;;;59.27;28.43;;;10.90;99.90;;;;;;5093959;28;20334;-78
2021/04/19 07:07:50;;;;;;;53.43;26.67;;;10.50;99.90;;;;;;5094448;28;20218;-77
2021/04/19 07:10:18;;;;;;;59.30;28.40;;;10.40;99.90;;;;;;5074678;28;20237;-75
2021/04/19 07:12:46;;;;;;;57.37;27.30;;;10.70;99.90;;;;;;5091828;28;20204;-76
2021/04/19 07:15:18;;;;;;;56.87;28.03;;;10.90;99.90;;;;;;5094332;28;20206;-76
2021/04/19 07:17:47;;;;;;;56.03;27.20;;;11.10;99.90;;;;;;5094826;28;20211;-76
2021/04/19 07:20:15;;;;;;;59.40;28.07;;;11.00;99.90;;;;;;5106165;28;20286;-75
2021/04/19 07:22:42;;;;;;;62.30;28.63;;;11.50;99.90;;;;;;5096947;28;20687;-78
2021/04/19 07:25:09;;;;;;;60.20;28.67;;;11.90;99.90;;;;;;5096532;28;20670;-76
2021/04/19 07:27:39;;;;;;;52.77;27.13;;;12.00;99.90;;;;;;5095015;28;20202;-76
2021/04/19 07:30:07;;;;;;;53.20;26.40;;;12.00;99.90;;;;;;5094017;28;20206;-77
2021/04/19 07:32:35;;;;;;;54.67;27.30;;;11.90;99.90;;;;;;5095056;28;20219;-76
2021/04/19 07:35:02;;;;;;;59.50;28.83;;;11.70;99.90;;;;;;5095816;28;20661;-75
2021/04/19 07:37:29;;;;;;;58.67;28.87;;;11.70;99.90;;;;;;5095882;28;20313;-78
2021/04/19 07:39:56;;;;;;;57.30;27.07;;;11.60;99.90;;;;;;5094591;28;20198;-76
2021/04/19 07:42:24;;;;;;;52.37;28.00;;;11.70;99.90;;;;;;5090773;28;20198;-76
2021/04/19 07:44:52;;;;;;;54.83;26.67;;;11.80;99.90;;;;;;5093727;28;20190;-76
2021/04/19 07:47:20;;;;;;;51.70;26.10;;;11.90;99.90;;;;;;5094431;28;20225;-77
2021/04/19 07:49:56;;;;;;;57.40;27.70;;;12.00;99.90;;;;;;5093739;28;20288;-76
2021/04/19 07:52:23;;;;;;;52.10;26.57;;;12.10;99.90;;;;;;5092652;28;20308;-76
2021/04/19 07:55:05;;;;;;;52.87;27.50;;;11.90;99.90;;;;;;5092567;28;20202;-77
2021/04/19 07:57:33;;;;;;;58.30;28.33;;;11.70;99.90;;;;;;5105829;28;20592;-77
2021/04/19 07:59:59;;;;;;;55.60;27.27;;;11.70;99.90;;;;;;5099872;28;20210;-77
2021/04/19 08:02:26;;;;;;;57.60;27.20;;;11.60;99.90;;;;;;5090548;28;20226;-76
2021/04/19 08:04:54;;;;;;;65.73;27.97;;;11.80;99.90;;;;;;5094520;28;20235;-76
2021/04/19 08:07:23;;;;;;;53.97;26.50;;;12.00;99.90;;;;;;5097591;28;20285;-76
2021/04/19 08:09:57;;;;;;;56.10;28.20;;;12.20;99.90;;;;;;5094446;28;20250;-76
2021/04/19 08:12:35;;;;;;;56.37;26.17;;;12.30;99.90;;;;;;5093990;28;20278;-77
2021/04/19 08:15:03;;;;;;;57.47;28.07;;;12.10;99.90;;;;;;5094167;28;20289;-78
2021/04/19 08:17:30;;;;;;;55.87;27.50;;;12.00;99.90;;;;;;5092810;28;20275;-77
2021/04/19 08:19:57;;;;;;;55.17;27.83;;;12.00;99.90;;;;;;5092302;28;20558;-77
2021/04/19 08:22:26;;;;;;;55.03;25.87;;;12.00;99.90;;;;;;5093314;28;20284;-77
2021/04/19 08:25:15;;;;;;;55.10;24.53;;;12.40;99.90;;;;;;5093701;28;20199;-77
2021/04/19 08:27:43;;;;;;;47.40;24.73;;;13.00;99.90;;;;;;5083947;28;20202;-76
2021/04/19 08:30:11;;;;;;;48.57;24.27;;;14.30;99.90;;;;;;5075672;28;20202;-77
2021/04/19 08:32:38;;;;;;;43.70;23.80;;;16.10;99.90;;;;;;5078360;28;20256;-77
2021/04/19 08:35:06;;;;;;;42.80;22.70;;;17.90;99.90;;;;;;5091543;28;20218;-77
2021/04/19 08:37:34;;;;;;;47.77;22.43;;;18.80;99.90;;;;;;5091846;28;20617;-77
2021/04/19 08:40:02;;;;;;;40.27;22.80;;;19.60;99.90;;;;;;5092223;28;20286;-77
2021/04/19 08:42:29;;;;;;;39.90;23.40;;;20.40;99.90;;;;;;5093292;28;20281;-77
2021/04/19 08:44:59;;;;;;;42.63;23.07;;;21.80;99.90;;;;;;5091438;28;20191;-77
2021/04/19 08:47:29;;;;;;;43.30;23.43;;;21.90;99.90;;;;;;5080795;28;20199;-77
2021/04/19 08:49:56;;;;;;;36.67;23.17;;;20.80;99.90;;;;;;5088183;28;20294;-77
2021/04/19 08:52:23;;;;;;;31.13;19.70;;;21.80;99.90;;;;;;5091564;28;20195;-77
2021/04/19 08:54:50;;;;;;;31.27;20.30;;;21.50;99.90;;;;;;5091500;28;20203;-77
2021/04/19 08:57:16;;;;;;;35.37;16.97;;;21.30;99.90;;;;;;5092189;28;20207;-77
2021/04/19 08:59:44;;;;;;;29.90;16.87;;;21.10;99.90;;;;;;5089632;28;20194;-77
2021/04/19 09:02:13;;;;;;;35.77;19.13;;;20.40;99.90;;;;;;5094140;28;20238;-76
2021/04/19 09:04:40;;;;;;;33.73;18.57;;;20.80;99.90;;;;;;5090812;28;20914;-76
2021/04/19 09:07:08;;;;;;;28.80;17.83;;;21.50;99.90;;;;;;5091876;28;20637;-76
2021/04/19 09:09:40;;;;;;;31.80;16.77;;;20.40;99.90;;;;;;5091831;28;20609;-76
2021/04/19 09:12:22;;;;;;;27.50;15.63;;;20.80;99.90;;;;;;5092461;28;20198;-77
2021/04/19 09:14:48;;;;;;;31.17;18.53;;;21.40;99.90;;;;;;5091134;28;20559;-77
2021/04/19 09:17:25;;;;;;;32.63;18.73;;;20.70;99.90;;;;;;5091693;28;20215;-77
2021/04/19 09:19:56;;;;;;;29.30;17.57;;;19.90;99.90;;;;;;5091827;28;20297;-77
2021/04/19 09:22:23;;;;;;;31.30;17.67;;;20.90;99.90;;;;;;5090760;28;20203;-77
2021/04/19 09:25:06;;;;;;;28.20;17.23;;;22.00;99.90;;;;;;5091450;28;20298;-78
2021/04/19 09:27:46;;;;;;;31.77;18.07;;;21.40;99.90;;;;;;5091325;28;20209;-77
2021/04/19 09:30:32;;;;;;;31.87;18.40;;;20.30;99.90;;;;;;5083459;28;20199;-78
2021/04/19 09:33:22;;;;;;;31.97;16.40;;;20.50;99.90;;;;;;5090741;28;20199;-77
2021/04/19 09:35:52;;;;;;;33.07;16.23;;;21.30;99.90;;;;;;5091377;28;20300;-76
2021/04/19 09:38:51;;;;;;;27.17;15.33;;;21.30;99.90;;;;;;5084429;28;20289;-77
2021/04/19 09:41:20;;;;;;;28.90;16.33;;;21.50;99.90;;;;;;5086696;28;20191;-77
2021/04/19 09:43:50;;;;;;;28.73;17.37;;;21.80;99.90;;;;;;5085591;28;20206;-77
2021/04/19 09:46:27;;;;;;;27.23;16.13;;;22.70;99.90;;;;;;5083578;28;20191;-77
2021/04/19 09:49:01;;;;;;;27.27;15.77;;;24.20;99.90;;;;;;5086227;28;20764;-77
2021/04/19 09:51:30;;;;;;;25.53;14.93;;;24.80;99.90;;;;;;5093487;28;20287;-77
2021/04/19 09:54:03;;;;;;;26.70;14.10;;;23.40;99.90;;;;;;5094074;28;20187;-77
2021/04/19 09:56:32;;;;;;;22.00;13.67;;;20.00;99.90;;;;;;5092162;28;20652;-77
2021/04/19 09:58:59;;;;;;;21.73;12.83;;;19.80;99.90;;;;;;5093930;28;20283;-77
2021/04/19 10:01:28;;;;;;;21.10;11.60;;;19.60;99.90;;;;;;5094708;28;20662;-77
2021/04/19 10:03:56;;;;;;;20.27;10.80;;;18.80;99.90;;;;;;5093532;28;20206;-78
2021/04/19 10:06:37;;;;;;;18.63;11.27;;;18.30;99.90;;;;;;5094793;28;20203;-77
2021/04/19 10:09:07;;;;;;;19.37;11.37;;;18.30;99.90;;;;;;5093489;28;20201;-77
2021/04/19 10:11:35;;;;;;;19.80;12.07;;;18.70;99.90;;;;;;5092827;28;20221;-78
2021/04/19 10:14:10;;;;;;;18.87;11.40;;;19.70;99.90;;;;;;5094294;28;20214;-78
2021/04/19 10:16:40;;;;;;;23.37;11.50;;;20.70;99.90;;;;;;5093071;28;20670;-77
2021/04/19 10:19:07;;;;;;;18.17;11.37;;;21.00;99.90;;;;;;5096428;28;20187;-78
2021/04/19 10:21:35;;;;;;;23.53;11.50;;;22.10;99.90;;;;;;5095807;28;20195;-77
2021/04/19 10:24:01;;;;;;;20.43;10.90;;;23.20;99.90;;;;;;5093954;28;20202;-78
2021/04/19 10:26:33;;;;;;;18.40;11.40;;;23.50;99.90;;;;;;5094832;28;20201;-76
2021/04/19 10:29:07;;;;;;;15.70;11.00;;;22.10;99.90;;;;;;5092309;28;20295;-77
2021/04/19 10:31:34;;;;;;;18.20;10.97;;;20.70;99.90;;;;;;5094543;28;20190;-77
2021/04/19 10:34:10;;;;;;;17.27;10.70;;;20.50;99.90;;;;;;5095066;28;20290;-77
2021/04/19 10:36:44;;;;;;;16.27;10.23;;;20.10;99.90;;;;;;5094147;28;20257;-77
2021/04/19 10:39:16;;;;;;;23.60;10.37;;;19.60;99.90;;;;;;5093281;28;20593;-77
2021/04/19 10:41:43;;;;;;;17.03;9.70;;;19.10;99.90;;;;;;5094360;28;20195;-77
2021/04/19 10:44:10;;;;;;;15.20;9.30;;;18.80;99.90;;;;;;5095034;28;20218;-77
2021/04/19 10:46:38;;;;;;;15.73;9.13;;;18.60;99.90;;;;;;5095316;28;20664;-78
2021/04/19 10:49:06;;;;;;;18.70;9.47;;;17.60;99.90;;;;;;5095427;28;20206;-77
2021/04/19 10:51:34;;;;;;;16.93;9.13;;;17.20;99.90;;;;;;5094423;28;20240;-77
2021/04/19 10:54:04;;;;;;;15.07;7.77;;;17.50;99.90;;;;;;5094751;28;20652;-78
2021/04/19 10:56:31;;;;;;;15.00;8.40;;;17.30;99.90;;;;;;5093938;28;20277;-78
2021/04/19 10:59:02;;;;;;;15.53;8.77;;;17.40;99.90;;;;;;5094373;28;20262;-78
2021/04/19 11:01:30;;;;;;;11.90;8.23;;;16.90;99.90;;;;;;5094616;28;20676;-78
2021/04/19 11:03:58;;;;;;;15.90;8.53;;;16.70;99.90;;;;;;5094470;28;20199;-78
2021/04/19 11:06:24;;;;;;;15.20;8.20;;;16.70;99.90;;;;;;5094399;28;20210;-77
2021/04/19 11:08:58;;;;;;;12.17;8.27;;;17.50;99.90;;;;;;5093731;28;20206;-78
2021/04/19 11:11:31;;;;;;;13.53;7.63;;;18.40;99.90;;;;;;5091085;28;20183;-78
2021/04/19 11:14:22;;;;;;;18.83;8.97;;;18.60;99.90;;;;;;5094625;28;20205;-77
2021/04/19 11:16:53;;;;;;;14.30;8.83;;;18.90;99.90;;;;;;5082811;28;20294;-78
2021/04/19 11:19:30;;;;;;;16.87;9.73;;;19.40;99.90;;;;;;5092336;28;20194;-78
2021/04/19 11:21:57;;;;;;;16.07;10.00;;;20.10;99.90;;;;;;5094625;28;20195;-78
2021/04/19 11:24:35;;;;;;;14.50;9.60;;;20.30;99.90;;;;;;5093566;28;20199;-78
2021/04/19 11:27:06;;;;;;;16.97;10.27;;;20.00;99.90;;;;;;5094649;28;20190;-77
2021/04/19 11:29:37;;;;;;;14.90;10.67;;;19.60;99.90;;;;;;5090165;28;20190;-77
2021/04/19 11:32:04;;;;;;;16.43;10.80;;;20.20;99.90;;;;;;5093390;28;20194;-78
2021/04/19 11:34:36;;;;;;;21.63;11.97;;;20.90;99.90;;;;;;5092903;28;20320;-77
2021/04/19 11:37:03;;;;;;;17.27;11.70;;;21.20;99.90;;;;;;5091505;28;20241;-77
2021/04/19 11:39:37;;;;;;;15.13;11.00;;;21.40;99.90;;;;;;5090723;28;20728;-78
2021/04/19 11:42:05;;;;;;;17.77;11.47;;;20.70;99.90;;;;;;5091100;28;20199;-77
2021/04/19 11:44:49;;;;;;;22.47;10.80;;;19.40;99.90;;;;;;5092984;28;20205;-78
2021/04/19 11:47:17;;;;;;;16.03;11.33;;;18.30;99.90;;;;;;5092000;28;20281;-77
2021/04/19 11:49:43;;;;;;;20.57;10.93;;;18.50;99.90;;;;;;5093279;28;20195;-77
2021/04/19 11:52:10;;;;;;;19.07;11.07;;;18.90;99.90;;;;;;5093418;28;20187;-78
2021/04/19 11:54:37;;;;;;;17.17;11.27;;;19.30;99.90;;;;;;5094048;28;20289;-78
2021/04/19 11:57:05;;;;;;;14.47;10.57;;;19.00;99.90;;;;;;5093590;28;20222;-77
2021/04/19 11:59:32;;;;;;;15.33;11.33;;;18.40;99.90;;;;;;5093977;28;20195;-77
2021/04/19 12:02:01;;;;;;;19.33;12.00;;;18.50;99.90;;;;;;5091794;28;20203;-77
2021/04/19 12:04:27;;;;;;;29.13;12.70;;;18.60;99.90;;;;;;5090428;28;20551;-77
2021/04/19 12:06:54;;;;;;;21.57;13.07;;;18.90;99.90;;;;;;5093051;28;20293;-77
2021/04/19 12:09:20;;;;;;;17.40;13.00;;;18.20;99.90;;;;;;5091834;28;20195;-77
2021/04/19 12:11:46;;;;;;;20.93;14.70;;;18.00;99.90;;;;;;5088301;28;20195;-77
2021/04/19 12:14:14;;;;;;;21.27;14.17;;;17.50;99.90;;;;;;5091374;28;20205;-77
2021/04/19 12:16:40;;;;;;;28.17;14.23;;;17.40;99.90;;;;;;5092438;28;20230;-77
2021/04/19 12:19:06;;;;;;;22.27;14.37;;;17.20;99.90;;;;;;5092493;28;20709;-77
2021/04/19 12:21:33;;;;;;;24.30;15.13;;;17.40;99.90;;;;;;5089946;28;20621;-77
2021/04/19 12:24:00;;;;;;;24.33;15.27;;;17.30;99.90;;;;;;5090950;28;20195;-78
2021/04/19 12:26:26;;;;;;;24.23;14.60;;;16.60;99.90;;;;;;5092351;28;20648;-77
2021/04/19 12:28:52;;;;;;;23.17;14.97;;;16.40;99.90;;;;;;5092107;28;20709;-77
2021/04/19 12:31:20;;;;;;;24.07;15.67;;;16.50;99.90;;;;;;5091575;28;20286;-77
2021/04/19 12:33:48;;;;;;;24.93;17.90;;;16.50;99.90;;;;;;5092479;28;20690;-78
2021/04/19 12:36:14;;;;;;;31.60;17.93;;;16.10;99.90;;;;;;5093386;28;20223;-78
2021/04/19 12:38:41;;;;;;;33.27;18.10;;;15.50;99.90;;;;;;5092582;28;20214;-77